Accueil
METAR-TAF:

METAR-TAF

Aéroports :

Aéroport Albert-Picardie

Albert, France

latitude: 49-58-21N, longitude: 002-41-29E, altitude: 111 m

Observation

Le bulletin a été fait il y a 37 minutes, à 22:00 UTC
Vent 6 kt de nord-ouest
Température 3°C
Humidité 75%
Pression 1022 hPa
Visibilité 10 km ou plus
pas de nuages en-dessous de 1500 mètres et pas de cumulonimbus.

METAR: LFAQ 082200Z AUTO 31006KT CAVOK 03/M01 Q1022

Heure: 23:37 (22:37 UTC)

Prévision

Le bulletin a été fait il y a 8 heures et 37 minutes, à 14:00 UTC
Prévision valable du 08 à 15 UTC au 08 à 24 UTC
Vent 7 kt de nord-est
Visibilité 10 km ou plus
Nuages épars à une hauteur de 4000 ft

TAF: LFAQ 081400Z 0815/0824 05007KT 9999 SCT040

Observations et prévisions météorologiques de plus de 4000 aéroports (messages METAR et TAF).

Les stations disponibles sont représentées par des disques jaunes et rouges sur la carte.

Passer la souris dessus pour voir le nom de la station.

Cliquer dessus pour voir les observations et prévisions météorologiques.

Pour changer de carte: cliquez sur les boutons verts avec une croix noire pour zoomer, sur le bouton vert avec un tiret pour effectuer un zoom arrière, ou sur les flèches vertes pour les cartes adjacentes.


METAR-TAF: